sensor_id;sensor_type;location;lat;lon;timestamp;temperature;humidity
5457;DHT22;2751;49.802;9.944;2023-08-17T00:01:41;20.60;1.00
5457;DHT22;2751;49.802;9.944;2023-08-17T00:04:07;20.50;1.00
5457;DHT22;2751;49.802;9.944;2023-08-17T00:06:34;20.60;99.90
5457;DHT22;2751;49.802;9.944;2023-08-17T00:09:01;20.50;1.00
5457;DHT22;2751;49.802;9.944;2023-08-17T00:11:29;20.50;99.90
5457;DHT22;2751;49.802;9.944;2023-08-17T00:13:56;20.50;99.90
5457;DHT22;2751;49.802;9.944;2023-08-17T00:16:23;20.40;1.00
5457;DHT22;2751;49.802;9.944;2023-08-17T00:18:51;20.40;99.90
5457;DHT22;2751;49.802;9.944;2023-08-17T00:21:18;20.40;99.90
5457;DHT22;2751;49.802;9.944;2023-08-17T00:23:45;20.30;81.60
5457;DHT22;2751;49.802;9.944;2023-08-17T00:26:12;20.30;1.00
5457;DHT22;2751;49.802;9.944;2023-08-17T00:28:39;20.30;1.00
5457;DHT22;2751;49.802;9.944;2023-08-17T00:31:06;20.30;99.90
5457;DHT22;2751;49.802;9.944;2023-08-17T00:33:33;20.30;34.90
5457;DHT22;2751;49.802;9.944;2023-08-17T00:36:01;20.30;99.90
5457;DHT22;2751;49.802;9.944;2023-08-17T00:38:28;20.30;1.00
5457;DHT22;2751;49.802;9.944;2023-08-17T00:40:55;20.30;1.00
5457;DHT22;2751;49.802;9.944;2023-08-17T00:43:23;20.20;1.00
5457;DHT22;2751;49.802;9.944;2023-08-17T00:45:50;20.10;1.00
5457;DHT22;2751;49.802;9.944;2023-08-17T00:48:17;20.10;99.90
5457;DHT22;2751;49.802;9.944;2023-08-17T00:50:46;20.10;99.90
5457;DHT22;2751;49.802;9.944;2023-08-17T00:53:15;20.10;75.60
5457;DHT22;2751;49.802;9.944;2023-08-17T00:55:43;20.00;1.00
5457;DHT22;2751;49.802;9.944;2023-08-17T00:58:10;20.10;11.10
5457;DHT22;2751;49.802;9.944;2023-08-17T01:00:37;20.10;99.90
5457;DHT22;2751;49.802;9.944;2023-08-17T01:03:04;20.00;6.80
5457;DHT22;2751;49.802;9.944;2023-08-17T01:05:31;20.10;48.80
5457;DHT22;2751;49.802;9.944;2023-08-17T01:07:59;20.10;1.00
5457;DHT22;2751;49.802;9.944;2023-08-17T01:10:33;20.10;1.00
5457;DHT22;2751;49.802;9.944;2023-08-17T01:13:09;20.10;1.00
5457;DHT22;2751;49.802;9.944;2023-08-17T01:15:40;20.10;1.00
5457;DHT22;2751;49.802;9.944;2023-08-17T01:18:14;20.10;1.00
5457;DHT22;2751;49.802;9.944;2023-08-17T01:20:43;20.10;1.00
5457;DHT22;2751;49.802;9.944;2023-08-17T01:23:12;20.00;1.00
5457;DHT22;2751;49.802;9.944;2023-08-17T01:25:38;20.00;1.00
5457;DHT22;2751;49.802;9.944;2023-08-17T01:28:06;20.00;1.00
5457;DHT22;2751;49.802;9.944;2023-08-17T01:30:35;20.00;1.00
5457;DHT22;2751;49.802;9.944;2023-08-17T01:33:07;19.90;1.00
5457;DHT22;2751;49.802;9.944;2023-08-17T01:35:39;19.90;1.00
5457;DHT22;2751;49.802;9.944;2023-08-17T01:38:16;19.90;1.00
5457;DHT22;2751;49.802;9.944;2023-08-17T01:40:45;19.90;1.00
5457;DHT22;2751;49.802;9.944;2023-08-17T01:43:12;19.90;1.00
5457;DHT22;2751;49.802;9.944;2023-08-17T01:45:40;19.90;42.70
5457;DHT22;2751;49.802;9.944;2023-08-17T01:48:07;19.90;99.90
5457;DHT22;2751;49.802;9.944;2023-08-17T01:50:34;19.90;99.90
5457;DHT22;2751;49.802;9.944;2023-08-17T01:53:01;19.90;99.90
5457;DHT22;2751;49.802;9.944;2023-08-17T01:55:29;19.90;99.90
5457;DHT22;2751;49.802;9.944;2023-08-17T01:57:56;19.90;99.90
5457;DHT22;2751;49.802;9.944;2023-08-17T02:00:23;19.80;65.30
5457;DHT22;2751;49.802;9.944;2023-08-17T02:02:49;19.80;1.00
5457;DHT22;2751;49.802;9.944;2023-08-17T02:05:16;19.70;19.40
5457;DHT22;2751;49.802;9.944;2023-08-17T02:07:43;19.70;99.90
5457;DHT22;2751;49.802;9.944;2023-08-17T02:10:10;19.70;99.90
5457;DHT22;2751;49.802;9.944;2023-08-17T02:12:38;19.70;99.90
5457;DHT22;2751;49.802;9.944;2023-08-17T02:15:06;19.60;99.90
5457;DHT22;2751;49.802;9.944;2023-08-17T02:17:33;19.60;99.90
5457;DHT22;2751;49.802;9.944;2023-08-17T02:20:00;19.60;99.90
5457;DHT22;2751;49.802;9.944;2023-08-17T02:22:28;19.60;99.90
5457;DHT22;2751;49.802;9.944;2023-08-17T02:24:55;19.50;99.90
5457;DHT22;2751;49.802;9.944;2023-08-17T02:27:22;19.50;99.90
5457;DHT22;2751;49.802;9.944;2023-08-17T02:29:50;19.50;99.90
5457;DHT22;2751;49.802;9.944;2023-08-17T02:32:17;19.40;99.90
5457;DHT22;2751;49.802;9.944;2023-08-17T02:34:44;19.40;99.90
5457;DHT22;2751;49.802;9.944;2023-08-17T02:37:11;19.30;99.90
5457;DHT22;2751;49.802;9.944;2023-08-17T02:39:38;19.40;99.90
5457;DHT22;2751;49.802;9.944;2023-08-17T02:42:10;19.40;99.90
5457;DHT22;2751;49.802;9.944;2023-08-17T02:44:37;19.30;99.90
5457;DHT22;2751;49.802;9.944;2023-08-17T02:47:05;19.40;99.90
5457;DHT22;2751;49.802;9.944;2023-08-17T02:49:32;19.30;1.00
5457;DHT22;2751;49.802;9.944;2023-08-17T02:51:59;19.30;1.00
5457;DHT22;2751;49.802;9.944;2023-08-17T02:54:26;19.30;1.00
5457;DHT22;2751;49.802;9.944;2023-08-17T02:56:53;19.20;1.00
5457;DHT22;2751;49.802;9.944;2023-08-17T02:59:19;19.20;1.00
5457;DHT22;2751;49.802;9.944;2023-08-17T03:01:46;19.20;1.00
5457;DHT22;2751;49.802;9.944;2023-08-17T03:04:14;19.20;1.00
5457;DHT22;2751;49.802;9.944;2023-08-17T03:06:41;19.20;1.00
5457;DHT22;2751;49.802;9.944;2023-08-17T03:09:08;19.20;1.00
5457;DHT22;2751;49.802;9.944;2023-08-17T03:11:35;19.20;1.00
5457;DHT22;2751;49.802;9.944;2023-08-17T03:14:02;19.10;1.00
5457;DHT22;2751;49.802;9.944;2023-08-17T03:16:29;19.10;1.00
5457;DHT22;2751;49.802;9.944;2023-08-17T03:18:56;19.10;1.00
5457;DHT22;2751;49.802;9.944;2023-08-17T03:21:24;19.10;1.00
5457;DHT22;2751;49.802;9.944;2023-08-17T03:23:52;19.10;1.00
5457;DHT22;2751;49.802;9.944;2023-08-17T03:26:19;19.10;1.00
5457;DHT22;2751;49.802;9.944;2023-08-17T03:28:46;19.10;1.00
5457;DHT22;2751;49.802;9.944;2023-08-17T03:31:12;19.10;1.00
5457;DHT22;2751;49.802;9.944;2023-08-17T03:33:39;19.00;1.00
5457;DHT22;2751;49.802;9.944;2023-08-17T03:36:07;19.00;1.00
5457;DHT22;2751;49.802;9.944;2023-08-17T03:38:35;19.00;1.00
5457;DHT22;2751;49.802;9.944;2023-08-17T03:41:03;19.00;1.00
5457;DHT22;2751;49.802;9.944;2023-08-17T03:43:30;19.00;1.00
5457;DHT22;2751;49.802;9.944;2023-08-17T03:45:57;19.00;1.00
5457;DHT22;2751;49.802;9.944;2023-08-17T03:48:24;19.00;1.00
5457;DHT22;2751;49.802;9.944;2023-08-17T03:50:51;19.00;1.00
5457;DHT22;2751;49.802;9.944;2023-08-17T03:53:19;19.00;1.00
5457;DHT22;2751;49.802;9.944;2023-08-17T03:55:48;19.00;1.00
5457;DHT22;2751;49.802;9.944;2023-08-17T03:58:15;19.00;1.00
5457;DHT22;2751;49.802;9.944;2023-08-17T04:00:42;19.00;1.00
5457;DHT22;2751;49.802;9.944;2023-08-17T04:03:09;19.00;1.00
5457;DHT22;2751;49.802;9.944;2023-08-17T04:05:36;19.00;1.00
5457;DHT22;2751;49.802;9.944;2023-08-17T04:08:03;19.00;1.00
5457;DHT22;2751;49.802;9.944;2023-08-17T04:10:30;18.90;1.00
5457;DHT22;2751;49.802;9.944;2023-08-17T04:12:58;19.00;1.00
5457;DHT22;2751;49.802;9.944;2023-08-17T04:15:25;18.90;1.00
5457;DHT22;2751;49.802;9.944;2023-08-17T04:17:52;18.90;1.00
5457;DHT22;2751;49.802;9.944;2023-08-17T04:20:19;19.00;1.00
5457;DHT22;2751;49.802;9.944;2023-08-17T04:22:47;18.90;1.00
5457;DHT22;2751;49.802;9.944;2023-08-17T04:25:14;18.90;1.00
5457;DHT22;2751;49.802;9.944;2023-08-17T04:27:41;18.90;1.00
5457;DHT22;2751;49.802;9.944;2023-08-17T04:30:10;18.90;1.00
5457;DHT22;2751;49.802;9.944;2023-08-17T04:32:37;18.90;1.00
5457;DHT22;2751;49.802;9.944;2023-08-17T04:35:05;18.90;1.00
5457;DHT22;2751;49.802;9.944;2023-08-17T04:37:32;18.90;1.00
5457;DHT22;2751;49.802;9.944;2023-08-17T04:39:59;18.90;1.00
5457;DHT22;2751;49.802;9.944;2023-08-17T04:42:26;18.90;1.00
5457;DHT22;2751;49.802;9.944;2023-08-17T04:44:53;19.00;1.00
5457;DHT22;2751;49.802;9.944;2023-08-17T04:47:21;19.00;1.00
5457;DHT22;2751;49.802;9.944;2023-08-17T04:49:48;19.00;1.00
5457;DHT22;2751;49.802;9.944;2023-08-17T04:52:15;19.00;1.00
5457;DHT22;2751;49.802;9.944;2023-08-17T04:54:42;19.10;1.00
5457;DHT22;2751;49.802;9.944;2023-08-17T04:57:09;19.10;1.00
5457;DHT22;2751;49.802;9.944;2023-08-17T04:59:36;19.10;1.00
5457;DHT22;2751;49.802;9.944;2023-08-17T05:02:03;19.20;1.00
5457;DHT22;2751;49.802;9.944;2023-08-17T05:04:31;19.20;1.00
5457;DHT22;2751;49.802;9.944;2023-08-17T05:06:58;19.30;1.00
5457;DHT22;2751;49.802;9.944;2023-08-17T05:09:25;19.30;1.00
5457;DHT22;2751;49.802;9.944;2023-08-17T05:11:52;19.30;1.00
5457;DHT22;2751;49.802;9.944;2023-08-17T05:14:20;19.40;1.00
5457;DHT22;2751;49.802;9.944;2023-08-17T05:16:46;19.40;1.00
5457;DHT22;2751;49.802;9.944;2023-08-17T05:19:13;19.50;1.00
5457;DHT22;2751;49.802;9.944;2023-08-17T05:21:41;19.50;1.00
5457;DHT22;2751;49.802;9.944;2023-08-17T05:24:08;19.50;99.90
5457;DHT22;2751;49.802;9.944;2023-08-17T05:26:35;19.60;99.90
5457;DHT22;2751;49.802;9.944;2023-08-17T05:29:02;19.60;99.90
5457;DHT22;2751;49.802;9.944;2023-08-17T05:31:29;19.60;99.90
5457;DHT22;2751;49.802;9.944;2023-08-17T05:33:56;19.60;99.90
5457;DHT22;2751;49.802;9.944;2023-08-17T05:36:23;19.60;1.00
5457;DHT22;2751;49.802;9.944;2023-08-17T05:38:51;19.60;99.90
5457;DHT22;2751;49.802;9.944;2023-08-17T05:41:18;19.60;99.90
5457;DHT22;2751;49.802;9.944;2023-08-17T05:43:45;19.60;99.90
5457;DHT22;2751;49.802;9.944;2023-08-17T05:46:11;19.60;99.90
5457;DHT22;2751;49.802;9.944;2023-08-17T05:48:41;19.60;99.90
5457;DHT22;2751;49.802;9.944;2023-08-17T05:51:08;19.80;99.90
5457;DHT22;2751;49.802;9.944;2023-08-17T05:53:35;19.90;99.90
5457;DHT22;2751;49.802;9.944;2023-08-17T05:56:03;19.90;99.90
5457;DHT22;2751;49.802;9.944;2023-08-17T05:58:30;20.00;99.90
5457;DHT22;2751;49.802;9.944;2023-08-17T06:01:04;20.10;99.90
5457;DHT22;2751;49.802;9.944;2023-08-17T06:03:31;20.20;99.90
5457;DHT22;2751;49.802;9.944;2023-08-17T06:05:58;20.20;76.00
5457;DHT22;2751;49.802;9.944;2023-08-17T06:08:25;20.30;1.00
5457;DHT22;2751;49.802;9.944;2023-08-17T06:10:52;20.30;1.00
5457;DHT22;2751;49.802;9.944;2023-08-17T06:13:20;20.30;1.00
5457;DHT22;2751;49.802;9.944;2023-08-17T06:15:47;20.40;1.00
5457;DHT22;2751;49.802;9.944;2023-08-17T06:18:14;20.40;1.00
5457;DHT22;2751;49.802;9.944;2023-08-17T06:20:41;20.50;1.00
5457;DHT22;2751;49.802;9.944;2023-08-17T06:23:08;20.40;1.00
5457;DHT22;2751;49.802;9.944;2023-08-17T06:25:35;20.40;1.00
5457;DHT22;2751;49.802;9.944;2023-08-17T06:28:02;20.50;1.00
5457;DHT22;2751;49.802;9.944;2023-08-17T06:30:30;20.50;1.00
5457;DHT22;2751;49.802;9.944;2023-08-17T06:32:57;20.60;1.00
5457;DHT22;2751;49.802;9.944;2023-08-17T06:35:24;20.70;99.90
5457;DHT22;2751;49.802;9.944;2023-08-17T06:37:51;20.70;99.90
5457;DHT22;2751;49.802;9.944;2023-08-17T06:40:22;20.70;1.00
5457;DHT22;2751;49.802;9.944;2023-08-17T06:42:49;20.80;99.90
5457;DHT22;2751;49.802;9.944;2023-08-17T06:45:15;20.90;1.00
5457;DHT22;2751;49.802;9.944;2023-08-17T06:47:45;21.00;1.00
5457;DHT22;2751;49.802;9.944;2023-08-17T06:50:14;21.10;99.90
5457;DHT22;2751;49.802;9.944;2023-08-17T06:52:41;21.20;99.90
5457;DHT22;2751;49.802;9.944;2023-08-17T06:55:08;21.30;1.00
5457;DHT22;2751;49.802;9.944;2023-08-17T06:57:35;21.40;1.00
5457;DHT22;2751;49.802;9.944;2023-08-17T07:00:02;21.50;99.90
5457;DHT22;2751;49.802;9.944;2023-08-17T07:02:31;21.50;99.90
5457;DHT22;2751;49.802;9.944;2023-08-17T07:04:59;21.60;3.50
5457;DHT22;2751;49.802;9.944;2023-08-17T07:07:26;21.70;1.00
5457;DHT22;2751;49.802;9.944;2023-08-17T07:09:53;21.90;99.90
5457;DHT22;2751;49.802;9.944;2023-08-17T07:12:20;22.10;99.90
5457;DHT22;2751;49.802;9.944;2023-08-17T07:14:46;22.00;6.20
5457;DHT22;2751;49.802;9.944;2023-08-17T07:17:13;22.10;1.00
5457;DHT22;2751;49.802;9.944;2023-08-17T07:19:41;22.20;1.00
5457;DHT22;2751;49.802;9.944;2023-08-17T07:22:09;22.30;1.00
5457;DHT22;2751;49.802;9.944;2023-08-17T07:24:36;22.40;99.90
5457;DHT22;2751;49.802;9.944;2023-08-17T07:27:03;22.40;1.00
5457;DHT22;2751;49.802;9.944;2023-08-17T07:29:30;22.50;99.90
5457;DHT22;2751;49.802;9.944;2023-08-17T07:31:57;22.50;99.90
5457;DHT22;2751;49.802;9.944;2023-08-17T07:34:27;22.60;1.00
5457;DHT22;2751;49.802;9.944;2023-08-17T07:36:54;22.60;99.90
5457;DHT22;2751;49.802;9.944;2023-08-17T07:39:23;22.60;1.00
5457;DHT22;2751;49.802;9.944;2023-08-17T07:41:50;22.70;99.90
5457;DHT22;2751;49.802;9.944;2023-08-17T07:44:17;22.70;99.90
5457;DHT22;2751;49.802;9.944;2023-08-17T07:46:44;22.50;99.90
5457;DHT22;2751;49.802;9.944;2023-08-17T07:49:11;22.60;99.90
5457;DHT22;2751;49.802;9.944;2023-08-17T07:51:38;22.70;99.90
5457;DHT22;2751;49.802;9.944;2023-08-17T07:54:05;22.80;1.00
5457;DHT22;2751;49.802;9.944;2023-08-17T07:56:33;22.90;1.00
5457;DHT22;2751;49.802;9.944;2023-08-17T07:59:00;22.90;1.00
5457;DHT22;2751;49.802;9.944;2023-08-17T08:01:26;22.90;1.00
5457;DHT22;2751;49.802;9.944;2023-08-17T08:03:53;23.10;1.00
5457;DHT22;2751;49.802;9.944;2023-08-17T08:06:20;23.50;99.90
5457;DHT22;2751;49.802;9.944;2023-08-17T08:08:47;24.10;99.90
5457;DHT22;2751;49.802;9.944;2023-08-17T08:11:14;24.90;98.30
5457;DHT22;2751;49.802;9.944;2023-08-17T08:13:42;25.60;7.00
5457;DHT22;2751;49.802;9.944;2023-08-17T08:16:09;26.10;1.00
5457;DHT22;2751;49.802;9.944;2023-08-17T08:18:36;26.40;1.00
5457;DHT22;2751;49.802;9.944;2023-08-17T08:21:03;26.00;1.00
5457;DHT22;2751;49.802;9.944;2023-08-17T08:23:30;26.50;1.00
5457;DHT22;2751;49.802;9.944;2023-08-17T08:25:57;27.60;1.00
5457;DHT22;2751;49.802;9.944;2023-08-17T08:28:24;27.70;1.00
5457;DHT22;2751;49.802;9.944;2023-08-17T08:30:53;27.70;1.00
5457;DHT22;2751;49.802;9.944;2023-08-17T08:33:19;28.70;1.00
5457;DHT22;2751;49.802;9.944;2023-08-17T08:35:46;28.80;1.00
5457;DHT22;2751;49.802;9.944;2023-08-17T08:38:14;29.00;1.00
5457;DHT22;2751;49.802;9.944;2023-08-17T08:40:41;29.40;1.00
5457;DHT22;2751;49.802;9.944;2023-08-17T08:43:08;29.90;24.50
5457;DHT22;2751;49.802;9.944;2023-08-17T08:45:36;29.80;5.90
5457;DHT22;2751;49.802;9.944;2023-08-17T08:48:05;30.50;1.00
5457;DHT22;2751;49.802;9.944;2023-08-17T08:50:35;31.30;6.10
5457;DHT22;2751;49.802;9.944;2023-08-17T08:53:03;31.80;1.00
5457;DHT22;2751;49.802;9.944;2023-08-17T08:55:37;32.50;99.90
5457;DHT22;2751;49.802;9.944;2023-08-17T08:58:05;32.70;99.90
5457;DHT22;2751;49.802;9.944;2023-08-17T09:00:33;33.30;1.00
5457;DHT22;2751;49.802;9.944;2023-08-17T09:03:02;33.70;1.00
5457;DHT22;2751;49.802;9.944;2023-08-17T09:05:31;34.00;1.00
5457;DHT22;2751;49.802;9.944;2023-08-17T09:08:00;35.00;1.00
5457;DHT22;2751;49.802;9.944;2023-08-17T09:10:28;35.80;1.00
5457;DHT22;2751;49.802;9.944;2023-08-17T09:12:55;36.30;1.00
5457;DHT22;2751;49.802;9.944;2023-08-17T09:15:22;35.90;1.00
5457;DHT22;2751;49.802;9.944;2023-08-17T09:17:49;35.90;1.00
5457;DHT22;2751;49.802;9.944;2023-08-17T09:20:38;36.30;1.00
5457;DHT22;2751;49.802;9.944;2023-08-17T09:23:10;35.40;1.00
5457;DHT22;2751;49.802;9.944;2023-08-17T09:25:39;35.50;1.00
5457;DHT22;2751;49.802;9.944;2023-08-17T09:28:10;35.50;1.00
5457;DHT22;2751;49.802;9.944;2023-08-17T09:30:52;35.80;1.00
5457;DHT22;2751;49.802;9.944;2023-08-17T09:33:19;36.40;1.00
5457;DHT22;2751;49.802;9.944;2023-08-17T09:35:48;36.70;1.00
5457;DHT22;2751;49.802;9.944;2023-08-17T09:38:15;37.00;1.00
5457;DHT22;2751;49.802;9.944;2023-08-17T09:40:42;36.80;1.00
5457;DHT22;2751;49.802;9.944;2023-08-17T09:43:09;35.80;1.00
5457;DHT22;2751;49.802;9.944;2023-08-17T09:45:37;35.70;1.00
5457;DHT22;2751;49.802;9.944;2023-08-17T09:48:05;36.40;1.00
5457;DHT22;2751;49.802;9.944;2023-08-17T09:50:32;36.40;1.00
5457;DHT22;2751;49.802;9.944;2023-08-17T09:53:01;36.40;1.00
5457;DHT22;2751;49.802;9.944;2023-08-17T09:55:30;36.50;1.00
5457;DHT22;2751;49.802;9.944;2023-08-17T09:57:57;36.10;1.00
5457;DHT22;2751;49.802;9.944;2023-08-17T10:00:25;35.70;1.00
5457;DHT22;2751;49.802;9.944;2023-08-17T10:02:53;34.70;1.00
5457;DHT22;2751;49.802;9.944;2023-08-17T10:05:20;34.70;1.00
5457;DHT22;2751;49.802;9.944;2023-08-17T10:07:52;35.30;1.00
5457;DHT22;2751;49.802;9.944;2023-08-17T10:10:24;36.00;1.00
5457;DHT22;2751;49.802;9.944;2023-08-17T10:12:59;36.50;1.00
5457;DHT22;2751;49.802;9.944;2023-08-17T10:15:30;37.00;1.00
5457;DHT22;2751;49.802;9.944;2023-08-17T10:18:05;38.30;1.00
5457;DHT22;2751;49.802;9.944;2023-08-17T10:20:34;39.40;1.00
5457;DHT22;2751;49.802;9.944;2023-08-17T10:23:10;40.10;1.00
5457;DHT22;2751;49.802;9.944;2023-08-17T10:25:40;40.10;1.00
5457;DHT22;2751;49.802;9.944;2023-08-17T10:28:08;39.30;1.00
5457;DHT22;2751;49.802;9.944;2023-08-17T10:30:36;39.20;1.00
5457;DHT22;2751;49.802;9.944;2023-08-17T10:33:04;39.20;1.00
5457;DHT22;2751;49.802;9.944;2023-08-17T10:35:32;39.30;1.00
5457;DHT22;2751;49.802;9.944;2023-08-17T10:37:59;39.10;1.00
5457;DHT22;2751;49.802;9.944;2023-08-17T10:40:27;38.00;1.00
5457;DHT22;2751;49.802;9.944;2023-08-17T10:42:56;36.80;1.00
5457;DHT22;2751;49.802;9.944;2023-08-17T10:45:27;36.70;1.00
5457;DHT22;2751;49.802;9.944;2023-08-17T10:48:24;37.40;1.00
5457;DHT22;2751;49.802;9.944;2023-08-17T10:51:02;38.70;1.00
5457;DHT22;2751;49.802;9.944;2023-08-17T10:53:35;39.10;1.00
5457;DHT22;2751;49.802;9.944;2023-08-17T10:56:06;38.80;1.00
5457;DHT22;2751;49.802;9.944;2023-08-17T10:58:35;39.20;1.00
5457;DHT22;2751;49.802;9.944;2023-08-17T11:01:02;39.90;1.00
5457;DHT22;2751;49.802;9.944;2023-08-17T11:03:29;40.80;1.00
5457;DHT22;2751;49.802;9.944;2023-08-17T11:05:56;41.70;1.00
5457;DHT22;2751;49.802;9.944;2023-08-17T11:08:27;42.20;1.00
5457;DHT22;2751;49.802;9.944;2023-08-17T11:10:59;42.20;1.00
5457;DHT22;2751;49.802;9.944;2023-08-17T11:13:28;42.00;1.00
5457;DHT22;2751;49.802;9.944;2023-08-17T11:15:58;41.70;1.00
5457;DHT22;2751;49.802;9.944;2023-08-17T11:18:25;41.80;1.00
5457;DHT22;2751;49.802;9.944;2023-08-17T11:20:53;42.70;1.00
5457;DHT22;2751;49.802;9.944;2023-08-17T11:23:20;43.00;1.00
5457;DHT22;2751;49.802;9.944;2023-08-17T11:25:47;42.90;1.00
5457;DHT22;2751;49.802;9.944;2023-08-17T11:28:16;43.30;1.00
5457;DHT22;2751;49.802;9.944;2023-08-17T11:30:43;43.10;1.00
5457;DHT22;2751;49.802;9.944;2023-08-17T11:33:11;42.70;1.00
5457;DHT22;2751;49.802;9.944;2023-08-17T11:35:39;42.90;1.00
5457;DHT22;2751;49.802;9.944;2023-08-17T11:38:07;43.90;1.00
5457;DHT22;2751;49.802;9.944;2023-08-17T11:40:34;44.90;1.00
5457;DHT22;2751;49.802;9.944;2023-08-17T11:43:01;44.10;1.00
5457;DHT22;2751;49.802;9.944;2023-08-17T11:45:28;44.60;1.00
5457;DHT22;2751;49.802;9.944;2023-08-17T11:47:56;44.20;1.00
5457;DHT22;2751;49.802;9.944;2023-08-17T11:50:24;43.80;1.00
5457;DHT22;2751;49.802;9.944;2023-08-17T11:52:51;42.90;1.00
5457;DHT22;2751;49.802;9.944;2023-08-17T11:55:18;42.00;1.00
5457;DHT22;2751;49.802;9.944;2023-08-17T11:57:46;42.10;1.00
5457;DHT22;2751;49.802;9.944;2023-08-17T12:00:18;43.20;1.00
5457;DHT22;2751;49.802;9.944;2023-08-17T12:02:50;43.60;1.00
5457;DHT22;2751;49.802;9.944;2023-08-17T12:05:24;44.60;1.00
5457;DHT22;2751;49.802;9.944;2023-08-17T12:07:53;45.30;1.00
5457;DHT22;2751;49.802;9.944;2023-08-17T12:10:22;44.60;1.00
5457;DHT22;2751;49.802;9.944;2023-08-17T12:12:49;44.30;1.00
5457;DHT22;2751;49.802;9.944;2023-08-17T12:15:16;44.80;1.00
5457;DHT22;2751;49.802;9.944;2023-08-17T12:17:45;44.90;1.00
5457;DHT22;2751;49.802;9.944;2023-08-17T12:20:16;45.40;1.00
5457;DHT22;2751;49.802;9.944;2023-08-17T12:22:45;46.00;1.00
5457;DHT22;2751;49.802;9.944;2023-08-17T12:25:13;46.10;1.00
5457;DHT22;2751;49.802;9.944;2023-08-17T12:27:40;45.60;1.00
5457;DHT22;2751;49.802;9.944;2023-08-17T12:30:12;45.60;1.00
5457;DHT22;2751;49.802;9.944;2023-08-17T12:32:39;46.00;1.00
5457;DHT22;2751;49.802;9.944;2023-08-17T12:35:07;46.40;1.00
5457;DHT22;2751;49.802;9.944;2023-08-17T12:37:34;45.20;1.00
5457;DHT22;2751;49.802;9.944;2023-08-17T12:40:02;45.50;1.00
5457;DHT22;2751;49.802;9.944;2023-08-17T12:42:30;45.20;1.00
5457;DHT22;2751;49.802;9.944;2023-08-17T12:44:57;45.60;1.00
5457;DHT22;2751;49.802;9.944;2023-08-17T12:47:24;46.30;1.00
5457;DHT22;2751;49.802;9.944;2023-08-17T12:49:51;45.70;1.00
5457;DHT22;2751;49.802;9.944;2023-08-17T12:52:18;45.60;1.00
5457;DHT22;2751;49.802;9.944;2023-08-17T12:54:45;46.40;1.00
5457;DHT22;2751;49.802;9.944;2023-08-17T12:57:13;46.70;1.00
5457;DHT22;2751;49.802;9.944;2023-08-17T12:59:41;45.00;1.00
5457;DHT22;2751;49.802;9.944;2023-08-17T13:02:08;43.80;1.00
5457;DHT22;2751;49.802;9.944;2023-08-17T13:04:35;43.90;1.00
5457;DHT22;2751;49.802;9.944;2023-08-17T13:07:02;44.30;1.00
5457;DHT22;2751;49.802;9.944;2023-08-17T13:09:29;45.10;1.00
5457;DHT22;2751;49.802;9.944;2023-08-17T13:11:56;46.30;1.00
5457;DHT22;2751;49.802;9.944;2023-08-17T13:14:24;46.60;1.00
5457;DHT22;2751;49.802;9.944;2023-08-17T13:16:52;45.60;1.00
5457;DHT22;2751;49.802;9.944;2023-08-17T13:19:18;46.10;1.00
5457;DHT22;2751;49.802;9.944;2023-08-17T13:21:45;44.70;1.00
5457;DHT22;2751;49.802;9.944;2023-08-17T13:24:12;44.40;1.00
5457;DHT22;2751;49.802;9.944;2023-08-17T13:26:39;43.60;1.00
5457;DHT22;2751;49.802;9.944;2023-08-17T13:29:06;42.80;1.00
5457;DHT22;2751;49.802;9.944;2023-08-17T13:31:36;43.30;1.00
5457;DHT22;2751;49.802;9.944;2023-08-17T13:34:03;43.70;1.00
5457;DHT22;2751;49.802;9.944;2023-08-17T13:36:30;43.20;1.00
5457;DHT22;2751;49.802;9.944;2023-08-17T13:38:57;42.50;1.00
5457;DHT22;2751;49.802;9.944;2023-08-17T13:41:23;41.30;1.00
5457;DHT22;2751;49.802;9.944;2023-08-17T13:43:50;41.30;1.00
5457;DHT22;2751;49.802;9.944;2023-08-17T13:46:17;40.50;1.00
5457;DHT22;2751;49.802;9.944;2023-08-17T13:48:45;40.20;1.00
5457;DHT22;2751;49.802;9.944;2023-08-17T13:51:12;40.40;1.00
5457;DHT22;2751;49.802;9.944;2023-08-17T13:54:10;41.40;1.00
5457;DHT22;2751;49.802;9.944;2023-08-17T13:56:37;42.80;1.00
5457;DHT22;2751;49.802;9.944;2023-08-17T13:59:04;42.80;1.00
5457;DHT22;2751;49.802;9.944;2023-08-17T14:01:31;42.00;1.00
5457;DHT22;2751;49.802;9.944;2023-08-17T14:03:59;40.80;1.00
5457;DHT22;2751;49.802;9.944;2023-08-17T14:06:28;40.70;1.00
5457;DHT22;2751;49.802;9.944;2023-08-17T14:08:55;39.20;1.00
5457;DHT22;2751;49.802;9.944;2023-08-17T14:11:22;39.40;1.00
5457;DHT22;2751;49.802;9.944;2023-08-17T14:13:49;40.50;1.00
5457;DHT22;2751;49.802;9.944;2023-08-17T14:16:16;39.50;1.00
5457;DHT22;2751;49.802;9.944;2023-08-17T14:18:43;40.30;1.00
5457;DHT22;2751;49.802;9.944;2023-08-17T14:21:11;39.40;1.00
5457;DHT22;2751;49.802;9.944;2023-08-17T14:23:39;37.50;1.00
5457;DHT22;2751;49.802;9.944;2023-08-17T14:26:06;37.20;1.00
5457;DHT22;2751;49.802;9.944;2023-08-17T14:28:33;37.20;1.00
5457;DHT22;2751;49.802;9.944;2023-08-17T14:30:59;37.20;1.00
5457;DHT22;2751;49.802;9.944;2023-08-17T14:33:26;36.80;1.00
5457;DHT22;2751;49.802;9.944;2023-08-17T14:35:53;36.20;1.00
5457;DHT22;2751;49.802;9.944;2023-08-17T14:38:21;35.50;1.00
5457;DHT22;2751;49.802;9.944;2023-08-17T14:40:48;34.80;1.00
5457;DHT22;2751;49.802;9.944;2023-08-17T14:43:15;34.40;1.00
5457;DHT22;2751;49.802;9.944;2023-08-17T14:45:43;33.90;1.00
5457;DHT22;2751;49.802;9.944;2023-08-17T14:48:10;33.90;1.00
5457;DHT22;2751;49.802;9.944;2023-08-17T14:50:37;33.60;1.00
5457;DHT22;2751;49.802;9.944;2023-08-17T14:53:04;33.10;1.00
5457;DHT22;2751;49.802;9.944;2023-08-17T14:55:34;32.70;1.00
5457;DHT22;2751;49.802;9.944;2023-08-17T14:58:00;32.50;1.00
5457;DHT22;2751;49.802;9.944;2023-08-17T15:00:27;32.50;1.00
5457;DHT22;2751;49.802;9.944;2023-08-17T15:02:56;32.50;1.00
5457;DHT22;2751;49.802;9.944;2023-08-17T15:05:23;32.30;1.00
5457;DHT22;2751;49.802;9.944;2023-08-17T15:07:50;32.40;1.00
5457;DHT22;2751;49.802;9.944;2023-08-17T15:10:16;32.40;1.00
5457;DHT22;2751;49.802;9.944;2023-08-17T15:12:45;32.20;1.00
5457;DHT22;2751;49.802;9.944;2023-08-17T15:15:12;31.60;1.00
5457;DHT22;2751;49.802;9.944;2023-08-17T15:17:39;31.20;1.00
5457;DHT22;2751;49.802;9.944;2023-08-17T15:20:06;31.10;1.00
5457;DHT22;2751;49.802;9.944;2023-08-17T15:22:33;30.90;1.00
5457;DHT22;2751;49.802;9.944;2023-08-17T15:25:00;30.90;1.00
5457;DHT22;2751;49.802;9.944;2023-08-17T15:27:27;30.50;1.00
5457;DHT22;2751;49.802;9.944;2023-08-17T15:29:55;30.10;1.00
5457;DHT22;2751;49.802;9.944;2023-08-17T15:32:22;30.10;1.00
5457;DHT22;2751;49.802;9.944;2023-08-17T15:34:49;30.00;1.00
5457;DHT22;2751;49.802;9.944;2023-08-17T15:37:16;30.00;1.00
5457;DHT22;2751;49.802;9.944;2023-08-17T15:39:43;29.90;1.00
5457;DHT22;2751;49.802;9.944;2023-08-17T15:42:10;29.90;1.00
5457;DHT22;2751;49.802;9.944;2023-08-17T15:44:38;29.90;1.00
5457;DHT22;2751;49.802;9.944;2023-08-17T15:47:06;29.90;1.00
5457;DHT22;2751;49.802;9.944;2023-08-17T15:49:33;30.00;1.00
5457;DHT22;2751;49.802;9.944;2023-08-17T15:52:00;30.00;1.00
5457;DHT22;2751;49.802;9.944;2023-08-17T15:54:27;30.00;1.00
5457;DHT22;2751;49.802;9.944;2023-08-17T15:56:54;30.00;1.00
5457;DHT22;2751;49.802;9.944;2023-08-17T15:59:20;29.90;1.00
5457;DHT22;2751;49.802;9.944;2023-08-17T16:01:47;29.90;1.00
5457;DHT22;2751;49.802;9.944;2023-08-17T16:04:15;29.80;1.00
5457;DHT22;2751;49.802;9.944;2023-08-17T16:06:42;29.80;1.00
5457;DHT22;2751;49.802;9.944;2023-08-17T16:09:09;29.70;1.00
5457;DHT22;2751;49.802;9.944;2023-08-17T16:11:36;29.60;1.00
5457;DHT22;2751;49.802;9.944;2023-08-17T16:14:03;28.60;1.00
5457;DHT22;2751;49.802;9.944;2023-08-17T16:16:30;27.80;1.00
5457;DHT22;2751;49.802;9.944;2023-08-17T16:18:57;27.30;1.00